Terminal Aerodrome Forecast
Issued by NWS Milwaukee/Sullivan, WI

Home | Current Version | Previous Version | Text Only | Print | Product List | Glossary On
Versions: 1 2 3 4 5 6 7 8 9 10 11 12 13 14 15 16 17 18 19 20 21 22 23 24 25 26 27 28 29 30 31 32 33 34 35 36 37 38 39 40 41 42 43 44 45 46 47 48 49 50
000
FTUS43 KMKX 281431 AAA
TAFMKE
TAF AMD
KMKE 281431Z 2815/2918 02010KT P6SM SCT014 OVC021
     FM281530 02012KT P6SM SCT025
     FM281900 02009KT P6SM BKN025
     FM282100 03009KT P6SM FEW040
     FM290700 03008KT 4SM BR SCT035
     FM291200 05007KT 2SM BR BKN015
     FM291500 06008KT 4SM BR BKN015=

USA.gov is the U.S. government's official web portal to all federal, state and local government web resources and services.